sensor_id;sensor_type;location;lat;lon;timestamp;temperature;humidity
52849;DHT22;38714;53.180;5.812;2023-07-08T00:02:12;18.80;99.90
52849;DHT22;38714;53.180;5.812;2023-07-08T00:04:39;18.80;99.90
52849;DHT22;38714;53.180;5.812;2023-07-08T00:07:05;18.70;99.90
52849;DHT22;38714;53.180;5.812;2023-07-08T00:09:34;18.70;99.90
52849;DHT22;38714;53.180;5.812;2023-07-08T00:12:00;18.70;99.90
52849;DHT22;38714;53.180;5.812;2023-07-08T00:14:25;18.70;99.90
52849;DHT22;38714;53.180;5.812;2023-07-08T00:16:51;18.60;99.90
52849;DHT22;38714;53.180;5.812;2023-07-08T00:19:16;18.60;99.90
52849;DHT22;38714;53.180;5.812;2023-07-08T00:21:45;18.60;99.90
52849;DHT22;38714;53.180;5.812;2023-07-08T00:24:11;18.50;99.90
52849;DHT22;38714;53.180;5.812;2023-07-08T00:26:37;18.50;99.90
52849;DHT22;38714;53.180;5.812;2023-07-08T00:29:07;18.50;99.90
52849;DHT22;38714;53.180;5.812;2023-07-08T00:31:33;18.50;99.90
52849;DHT22;38714;53.180;5.812;2023-07-08T00:33:59;18.40;99.90
52849;DHT22;38714;53.180;5.812;2023-07-08T00:36:27;18.40;99.90
52849;DHT22;38714;53.180;5.812;2023-07-08T00:38:52;18.40;99.90
52849;DHT22;38714;53.180;5.812;2023-07-08T00:41:20;18.30;99.90
52849;DHT22;38714;53.180;5.812;2023-07-08T00:43:51;18.30;99.90
52849;DHT22;38714;53.180;5.812;2023-07-08T00:49:11;18.30;99.90
52849;DHT22;38714;53.180;5.812;2023-07-08T00:51:39;18.30;99.90
52849;DHT22;38714;53.180;5.812;2023-07-08T00:59:33;18.20;99.90
52849;DHT22;38714;53.180;5.812;2023-07-08T01:02:03;18.20;99.90
52849;DHT22;38714;53.180;5.812;2023-07-08T01:04:38;18.10;99.90
52849;DHT22;38714;53.180;5.812;2023-07-08T01:07:08;18.10;99.90
52849;DHT22;38714;53.180;5.812;2023-07-08T01:09:37;18.00;99.90
52849;DHT22;38714;53.180;5.812;2023-07-08T01:12:06;18.10;99.90
52849;DHT22;38714;53.180;5.812;2023-07-08T01:14:34;18.10;99.90
52849;DHT22;38714;53.180;5.812;2023-07-08T01:17:02;18.10;99.90
52849;DHT22;38714;53.180;5.812;2023-07-08T01:19:28;18.00;99.90
52849;DHT22;38714;53.180;5.812;2023-07-08T01:22:05;18.00;99.90
52849;DHT22;38714;53.180;5.812;2023-07-08T01:24:33;18.00;99.90
52849;DHT22;38714;53.180;5.812;2023-07-08T01:27:01;18.00;99.90
52849;DHT22;38714;53.180;5.812;2023-07-08T01:29:27;17.90;99.90
52849;DHT22;38714;53.180;5.812;2023-07-08T01:31:55;17.90;99.90
52849;DHT22;38714;53.180;5.812;2023-07-08T01:34:21;17.90;99.90
52849;DHT22;38714;53.180;5.812;2023-07-08T01:36:52;17.90;99.90
52849;DHT22;38714;53.180;5.812;2023-07-08T01:39:21;17.90;99.90
52849;DHT22;38714;53.180;5.812;2023-07-08T01:41:47;17.80;99.90
52849;DHT22;38714;53.180;5.812;2023-07-08T01:44:29;17.80;99.90
52849;DHT22;38714;53.180;5.812;2023-07-08T01:47:11;17.80;99.90
52849;DHT22;38714;53.180;5.812;2023-07-08T01:49:39;17.80;99.90
52849;DHT22;38714;53.180;5.812;2023-07-08T01:52:06;17.70;99.90
52849;DHT22;38714;53.180;5.812;2023-07-08T01:54:32;17.70;99.90
52849;DHT22;38714;53.180;5.812;2023-07-08T01:56:58;17.70;99.90
52849;DHT22;38714;53.180;5.812;2023-07-08T01:59:24;17.70;99.90
52849;DHT22;38714;53.180;5.812;2023-07-08T02:01:50;17.70;99.90
52849;DHT22;38714;53.180;5.812;2023-07-08T02:04:23;17.60;99.90
52849;DHT22;38714;53.180;5.812;2023-07-08T02:06:58;17.60;99.90
52849;DHT22;38714;53.180;5.812;2023-07-08T02:09:24;17.60;99.90
52849;DHT22;38714;53.180;5.812;2023-07-08T02:11:51;17.60;99.90
52849;DHT22;38714;53.180;5.812;2023-07-08T02:14:17;17.50;99.90
52849;DHT22;38714;53.180;5.812;2023-07-08T02:16:42;17.50;99.90
52849;DHT22;38714;53.180;5.812;2023-07-08T02:19:10;17.50;99.90
52849;DHT22;38714;53.180;5.812;2023-07-08T02:21:36;17.50;99.90
52849;DHT22;38714;53.180;5.812;2023-07-08T02:24:03;17.40;99.90
52849;DHT22;38714;53.180;5.812;2023-07-08T02:26:29;17.40;99.90
52849;DHT22;38714;53.180;5.812;2023-07-08T02:29:00;17.40;99.90
52849;DHT22;38714;53.180;5.812;2023-07-08T02:31:26;17.30;99.90
52849;DHT22;38714;53.180;5.812;2023-07-08T02:33:53;17.30;99.90
52849;DHT22;38714;53.180;5.812;2023-07-08T02:36:19;17.30;99.90
52849;DHT22;38714;53.180;5.812;2023-07-08T02:38:45;17.30;99.90
52849;DHT22;38714;53.180;5.812;2023-07-08T02:41:11;17.20;99.90
52849;DHT22;38714;53.180;5.812;2023-07-08T02:43:37;17.20;99.90
52849;DHT22;38714;53.180;5.812;2023-07-08T02:46:03;17.20;99.90
52849;DHT22;38714;53.180;5.812;2023-07-08T02:48:29;17.20;99.90
52849;DHT22;38714;53.180;5.812;2023-07-08T02:51:02;17.20;99.90
52849;DHT22;38714;53.180;5.812;2023-07-08T02:53:28;17.20;99.90
52849;DHT22;38714;53.180;5.812;2023-07-08T02:55:54;17.20;99.90
52849;DHT22;38714;53.180;5.812;2023-07-08T02:58:20;17.20;99.90
52849;DHT22;38714;53.180;5.812;2023-07-08T03:00:50;17.20;99.90
52849;DHT22;38714;53.180;5.812;2023-07-08T03:03:16;17.10;99.90
52849;DHT22;38714;53.180;5.812;2023-07-08T03:05:42;17.10;99.90
52849;DHT22;38714;53.180;5.812;2023-07-08T03:08:07;17.10;99.90
52849;DHT22;38714;53.180;5.812;2023-07-08T03:10:33;17.10;99.90
52849;DHT22;38714;53.180;5.812;2023-07-08T03:12:59;17.10;99.90
52849;DHT22;38714;53.180;5.812;2023-07-08T03:15:24;17.10;99.90
52849;DHT22;38714;53.180;5.812;2023-07-08T03:17:50;17.00;99.90
52849;DHT22;38714;53.180;5.812;2023-07-08T03:20:15;17.00;99.90
52849;DHT22;38714;53.180;5.812;2023-07-08T03:22:42;17.00;99.90
52849;DHT22;38714;53.180;5.812;2023-07-08T03:25:08;17.00;99.90
52849;DHT22;38714;53.180;5.812;2023-07-08T03:27:34;16.90;99.90
52849;DHT22;38714;53.180;5.812;2023-07-08T03:30:00;16.90;99.90
52849;DHT22;38714;53.180;5.812;2023-07-08T03:32:25;16.90;99.90
52849;DHT22;38714;53.180;5.812;2023-07-08T03:34:51;16.90;99.90
52849;DHT22;38714;53.180;5.812;2023-07-08T03:37:17;16.90;99.90
52849;DHT22;38714;53.180;5.812;2023-07-08T03:39:42;16.90;99.90
52849;DHT22;38714;53.180;5.812;2023-07-08T03:42:09;16.90;99.90
52849;DHT22;38714;53.180;5.812;2023-07-08T03:44:34;16.90;99.90
52849;DHT22;38714;53.180;5.812;2023-07-08T03:47:00;16.90;99.90
52849;DHT22;38714;53.180;5.812;2023-07-08T03:49:26;16.90;99.90
52849;DHT22;38714;53.180;5.812;2023-07-08T03:51:53;16.90;99.90
52849;DHT22;38714;53.180;5.812;2023-07-08T03:54:20;16.90;99.90
52849;DHT22;38714;53.180;5.812;2023-07-08T03:56:45;16.90;99.90
52849;DHT22;38714;53.180;5.812;2023-07-08T03:59:11;16.90;99.90
52849;DHT22;38714;53.180;5.812;2023-07-08T04:01:37;16.80;99.90
52849;DHT22;38714;53.180;5.812;2023-07-08T04:04:08;16.80;99.90
52849;DHT22;38714;53.180;5.812;2023-07-08T04:06:34;16.80;99.90
52849;DHT22;38714;53.180;5.812;2023-07-08T04:09:00;16.80;99.90
52849;DHT22;38714;53.180;5.812;2023-07-08T04:11:26;16.80;99.90
52849;DHT22;38714;53.180;5.812;2023-07-08T04:13:52;16.80;99.90
52849;DHT22;38714;53.180;5.812;2023-07-08T04:16:28;16.90;99.90
52849;DHT22;38714;53.180;5.812;2023-07-08T04:18:55;16.90;99.90
52849;DHT22;38714;53.180;5.812;2023-07-08T04:21:25;16.90;99.90
52849;DHT22;38714;53.180;5.812;2023-07-08T04:23:51;16.90;99.90
52849;DHT22;38714;53.180;5.812;2023-07-08T04:26:17;16.90;99.90
52849;DHT22;38714;53.180;5.812;2023-07-08T04:28:44;16.90;99.90
52849;DHT22;38714;53.180;5.812;2023-07-08T04:31:10;16.90;99.90
52849;DHT22;38714;53.180;5.812;2023-07-08T04:33:36;16.90;99.90
52849;DHT22;38714;53.180;5.812;2023-07-08T04:36:02;16.90;99.90
52849;DHT22;38714;53.180;5.812;2023-07-08T04:38:28;16.90;99.90
52849;DHT22;38714;53.180;5.812;2023-07-08T04:40:54;16.90;99.90
52849;DHT22;38714;53.180;5.812;2023-07-08T04:43:20;16.90;99.90
52849;DHT22;38714;53.180;5.812;2023-07-08T04:45:49;16.90;99.90
52849;DHT22;38714;53.180;5.812;2023-07-08T04:48:17;17.00;99.90
52849;DHT22;38714;53.180;5.812;2023-07-08T04:50:46;17.00;99.90
52849;DHT22;38714;53.180;5.812;2023-07-08T04:53:12;17.00;99.90
52849;DHT22;38714;53.180;5.812;2023-07-08T04:55:44;17.00;99.90
52849;DHT22;38714;53.180;5.812;2023-07-08T04:58:10;17.10;99.90
52849;DHT22;38714;53.180;5.812;2023-07-08T05:00:36;17.10;99.90
52849;DHT22;38714;53.180;5.812;2023-07-08T05:03:02;17.10;99.90
52849;DHT22;38714;53.180;5.812;2023-07-08T05:05:28;17.10;99.90
52849;DHT22;38714;53.180;5.812;2023-07-08T05:07:53;17.10;99.90
52849;DHT22;38714;53.180;5.812;2023-07-08T05:10:20;17.20;99.90
52849;DHT22;38714;53.180;5.812;2023-07-08T05:12:46;17.20;99.90
52849;DHT22;38714;53.180;5.812;2023-07-08T05:15:12;17.30;99.90
52849;DHT22;38714;53.180;5.812;2023-07-08T05:17:39;17.30;99.90
52849;DHT22;38714;53.180;5.812;2023-07-08T05:20:10;17.30;99.90
52849;DHT22;38714;53.180;5.812;2023-07-08T05:22:36;17.40;99.90
52849;DHT22;38714;53.180;5.812;2023-07-08T05:25:02;17.40;99.90
52849;DHT22;38714;53.180;5.812;2023-07-08T05:27:29;17.40;99.90
52849;DHT22;38714;53.180;5.812;2023-07-08T05:29:54;17.40;99.90
52849;DHT22;38714;53.180;5.812;2023-07-08T05:32:20;17.50;99.90
52849;DHT22;38714;53.180;5.812;2023-07-08T05:34:46;17.50;99.90
52849;DHT22;38714;53.180;5.812;2023-07-08T05:37:13;17.50;99.90
52849;DHT22;38714;53.180;5.812;2023-07-08T05:39:39;17.60;99.90
52849;DHT22;38714;53.180;5.812;2023-07-08T05:42:05;17.60;99.90
52849;DHT22;38714;53.180;5.812;2023-07-08T05:44:31;17.70;99.90
52849;DHT22;38714;53.180;5.812;2023-07-08T05:46:57;17.70;99.90
52849;DHT22;38714;53.180;5.812;2023-07-08T05:49:22;17.70;99.90
52849;DHT22;38714;53.180;5.812;2023-07-08T05:51:48;17.80;99.90
52849;DHT22;38714;53.180;5.812;2023-07-08T05:54:14;17.80;99.90
52849;DHT22;38714;53.180;5.812;2023-07-08T05:56:40;17.90;99.90
52849;DHT22;38714;53.180;5.812;2023-07-08T05:59:06;17.90;99.90
52849;DHT22;38714;53.180;5.812;2023-07-08T06:01:32;17.90;99.90
52849;DHT22;38714;53.180;5.812;2023-07-08T06:03:58;18.00;99.90
52849;DHT22;38714;53.180;5.812;2023-07-08T06:06:25;18.00;99.90
52849;DHT22;38714;53.180;5.812;2023-07-08T06:08:51;18.00;99.90
52849;DHT22;38714;53.180;5.812;2023-07-08T06:11:17;18.10;99.90
52849;DHT22;38714;53.180;5.812;2023-07-08T06:13:42;18.20;99.90
52849;DHT22;38714;53.180;5.812;2023-07-08T06:16:08;18.20;99.90
52849;DHT22;38714;53.180;5.812;2023-07-08T06:18:34;18.20;99.90
52849;DHT22;38714;53.180;5.812;2023-07-08T06:21:00;18.30;99.90
52849;DHT22;38714;53.180;5.812;2023-07-08T06:23:27;18.30;99.90
52849;DHT22;38714;53.180;5.812;2023-07-08T06:25:54;18.40;99.90
52849;DHT22;38714;53.180;5.812;2023-07-08T06:28:20;18.50;99.90
52849;DHT22;38714;53.180;5.812;2023-07-08T06:30:46;18.50;99.90
52849;DHT22;38714;53.180;5.812;2023-07-08T06:33:12;18.60;99.90
52849;DHT22;38714;53.180;5.812;2023-07-08T06:35:39;18.70;99.90
52849;DHT22;38714;53.180;5.812;2023-07-08T06:38:05;18.70;99.90
52849;DHT22;38714;53.180;5.812;2023-07-08T06:40:33;18.80;99.90
52849;DHT22;38714;53.180;5.812;2023-07-08T06:42:58;18.80;99.90
52849;DHT22;38714;53.180;5.812;2023-07-08T06:45:24;18.90;99.90
52849;DHT22;38714;53.180;5.812;2023-07-08T06:47:50;18.90;99.90
52849;DHT22;38714;53.180;5.812;2023-07-08T06:50:16;19.00;99.90
52849;DHT22;38714;53.180;5.812;2023-07-08T06:52:41;19.10;99.90
52849;DHT22;38714;53.180;5.812;2023-07-08T06:55:09;19.10;99.90
52849;DHT22;38714;53.180;5.812;2023-07-08T06:57:36;19.20;99.90
52849;DHT22;38714;53.180;5.812;2023-07-08T07:00:05;19.20;99.90
52849;DHT22;38714;53.180;5.812;2023-07-08T07:02:31;19.30;99.90
52849;DHT22;38714;53.180;5.812;2023-07-08T07:04:56;19.30;99.90
52849;DHT22;38714;53.180;5.812;2023-07-08T07:07:22;19.40;99.90
52849;DHT22;38714;53.180;5.812;2023-07-08T07:09:48;19.40;99.90
52849;DHT22;38714;53.180;5.812;2023-07-08T07:12:13;19.50;99.90
52849;DHT22;38714;53.180;5.812;2023-07-08T07:14:39;19.50;99.90
52849;DHT22;38714;53.180;5.812;2023-07-08T07:17:05;19.60;99.90
52849;DHT22;38714;53.180;5.812;2023-07-08T07:19:30;19.70;99.90
52849;DHT22;38714;53.180;5.812;2023-07-08T07:21:56;19.70;99.90
52849;DHT22;38714;53.180;5.812;2023-07-08T07:24:22;19.70;99.90
52849;DHT22;38714;53.180;5.812;2023-07-08T07:26:47;19.80;99.90
52849;DHT22;38714;53.180;5.812;2023-07-08T07:29:16;19.80;99.90
52849;DHT22;38714;53.180;5.812;2023-07-08T07:31:42;19.90;99.90
52849;DHT22;38714;53.180;5.812;2023-07-08T07:34:09;19.90;99.90
52849;DHT22;38714;53.180;5.812;2023-07-08T07:36:34;20.00;99.90
52849;DHT22;38714;53.180;5.812;2023-07-08T07:39:00;20.00;99.90
52849;DHT22;38714;53.180;5.812;2023-07-08T07:41:26;20.10;99.90
52849;DHT22;38714;53.180;5.812;2023-07-08T07:43:51;20.20;99.90
52849;DHT22;38714;53.180;5.812;2023-07-08T07:46:17;20.20;99.90
52849;DHT22;38714;53.180;5.812;2023-07-08T07:48:43;20.30;99.90
52849;DHT22;38714;53.180;5.812;2023-07-08T07:51:09;20.30;99.90
52849;DHT22;38714;53.180;5.812;2023-07-08T07:53:39;20.40;99.90
52849;DHT22;38714;53.180;5.812;2023-07-08T07:56:05;20.40;99.90
52849;DHT22;38714;53.180;5.812;2023-07-08T07:58:31;20.40;99.90
52849;DHT22;38714;53.180;5.812;2023-07-08T08:00:57;20.50;99.90
52849;DHT22;38714;53.180;5.812;2023-07-08T08:03:23;20.50;99.90
52849;DHT22;38714;53.180;5.812;2023-07-08T08:05:48;20.60;99.90
52849;DHT22;38714;53.180;5.812;2023-07-08T08:08:14;20.60;99.90
52849;DHT22;38714;53.180;5.812;2023-07-08T08:10:41;20.70;99.90
52849;DHT22;38714;53.180;5.812;2023-07-08T08:13:07;20.70;99.90
52849;DHT22;38714;53.180;5.812;2023-07-08T08:15:34;20.80;99.90
52849;DHT22;38714;53.180;5.812;2023-07-08T08:17:59;20.80;99.90
52849;DHT22;38714;53.180;5.812;2023-07-08T08:20:26;20.90;99.90
52849;DHT22;38714;53.180;5.812;2023-07-08T08:22:52;20.90;99.90
52849;DHT22;38714;53.180;5.812;2023-07-08T08:25:19;21.00;99.90
52849;DHT22;38714;53.180;5.812;2023-07-08T08:27:45;21.00;99.90
52849;DHT22;38714;53.180;5.812;2023-07-08T08:30:11;21.10;99.90
52849;DHT22;38714;53.180;5.812;2023-07-08T08:32:37;21.10;99.90
52849;DHT22;38714;53.180;5.812;2023-07-08T08:35:03;21.20;99.90
52849;DHT22;38714;53.180;5.812;2023-07-08T08:37:29;21.30;99.90
52849;DHT22;38714;53.180;5.812;2023-07-08T08:39:55;21.30;99.90
52849;DHT22;38714;53.180;5.812;2023-07-08T08:42:41;21.40;99.90
52849;DHT22;38714;53.180;5.812;2023-07-08T08:45:12;21.40;99.90
52849;DHT22;38714;53.180;5.812;2023-07-08T08:47:45;21.50;99.90
52849;DHT22;38714;53.180;5.812;2023-07-08T08:50:52;21.50;99.90
52849;DHT22;38714;53.180;5.812;2023-07-08T08:53:19;21.60;99.90
52849;DHT22;38714;53.180;5.812;2023-07-08T08:59:24;21.60;99.90
52849;DHT22;38714;53.180;5.812;2023-07-08T09:01:53;21.70;99.90
52849;DHT22;38714;53.180;5.812;2023-07-08T09:04:28;21.70;99.90
52849;DHT22;38714;53.180;5.812;2023-07-08T09:07:04;21.80;99.90
52849;DHT22;38714;53.180;5.812;2023-07-08T09:09:38;21.80;99.90
52849;DHT22;38714;53.180;5.812;2023-07-08T09:12:11;21.90;99.90
52849;DHT22;38714;53.180;5.812;2023-07-08T09:14:40;21.90;99.90
52849;DHT22;38714;53.180;5.812;2023-07-08T09:17:24;22.00;99.90
52849;DHT22;38714;53.180;5.812;2023-07-08T09:20:20;22.00;99.90
52849;DHT22;38714;53.180;5.812;2023-07-08T09:25:58;22.10;99.90
52849;DHT22;38714;53.180;5.812;2023-07-08T09:28:42;22.10;99.90
52849;DHT22;38714;53.180;5.812;2023-07-08T09:31:19;22.10;99.90
52849;DHT22;38714;53.180;5.812;2023-07-08T09:33:46;22.20;99.90
52849;DHT22;38714;53.180;5.812;2023-07-08T09:36:21;22.20;99.90
52849;DHT22;38714;53.180;5.812;2023-07-08T09:38:49;22.40;99.90
52849;DHT22;38714;53.180;5.812;2023-07-08T09:41:30;22.40;99.90
52849;DHT22;38714;53.180;5.812;2023-07-08T09:46:36;22.50;99.90
52849;DHT22;38714;53.180;5.812;2023-07-08T09:49:20;22.50;99.90
52849;DHT22;38714;53.180;5.812;2023-07-08T09:51:46;22.60;99.90
52849;DHT22;38714;53.180;5.812;2023-07-08T09:54:12;22.60;99.90
52849;DHT22;38714;53.180;5.812;2023-07-08T09:56:44;22.70;99.90
52849;DHT22;38714;53.180;5.812;2023-07-08T09:59:14;22.70;99.90
52849;DHT22;38714;53.180;5.812;2023-07-08T10:01:41;22.80;99.90
52849;DHT22;38714;53.180;5.812;2023-07-08T10:04:07;22.80;99.90
52849;DHT22;38714;53.180;5.812;2023-07-08T10:06:34;22.90;99.90
52849;DHT22;38714;53.180;5.812;2023-07-08T10:09:12;22.90;99.90
52849;DHT22;38714;53.180;5.812;2023-07-08T10:11:46;22.80;99.90
52849;DHT22;38714;53.180;5.812;2023-07-08T10:14:35;22.90;99.90
52849;DHT22;38714;53.180;5.812;2023-07-08T10:17:02;22.90;99.90
52849;DHT22;38714;53.180;5.812;2023-07-08T10:19:27;22.90;99.90
52849;DHT22;38714;53.180;5.812;2023-07-08T10:30:53;23.20;99.90
52849;DHT22;38714;53.180;5.812;2023-07-08T10:36:19;23.40;99.90
52849;DHT22;38714;53.180;5.812;2023-07-08T10:39:02;23.50;99.90
52849;DHT22;38714;53.180;5.812;2023-07-08T10:47:34;23.80;99.90
52849;DHT22;38714;53.180;5.812;2023-07-08T10:55:43;24.10;99.90
52849;DHT22;38714;53.180;5.812;2023-07-08T11:04:07;24.20;99.90
52849;DHT22;38714;53.180;5.812;2023-07-08T11:09:26;24.40;99.90
52849;DHT22;38714;53.180;5.812;2023-07-08T11:11:56;24.40;99.90
52849;DHT22;38714;53.180;5.812;2023-07-08T11:14:33;24.40;99.90
52849;DHT22;38714;53.180;5.812;2023-07-08T11:17:21;24.60;99.90
52849;DHT22;38714;53.180;5.812;2023-07-08T11:20:22;24.60;99.90
52849;DHT22;38714;53.180;5.812;2023-07-08T11:22:51;24.60;99.90
52849;DHT22;38714;53.180;5.812;2023-07-08T11:25:20;24.70;99.90
52849;DHT22;38714;53.180;5.812;2023-07-08T11:27:48;24.70;99.90
52849;DHT22;38714;53.180;5.812;2023-07-08T11:30:17;24.80;99.90
52849;DHT22;38714;53.180;5.812;2023-07-08T11:32:47;24.80;99.90
52849;DHT22;38714;53.180;5.812;2023-07-08T11:35:21;24.70;99.90
52849;DHT22;38714;53.180;5.812;2023-07-08T11:37:49;24.80;99.90
52849;DHT22;38714;53.180;5.812;2023-07-08T11:40:21;24.80;99.90
52849;DHT22;38714;53.180;5.812;2023-07-08T11:42:52;24.90;99.90
52849;DHT22;38714;53.180;5.812;2023-07-08T11:47:49;24.90;99.90
52849;DHT22;38714;53.180;5.812;2023-07-08T11:50:18;25.00;99.90
52849;DHT22;38714;53.180;5.812;2023-07-08T11:52:53;25.10;99.90
52849;DHT22;38714;53.180;5.812;2023-07-08T11:55:35;25.20;99.90
52849;DHT22;38714;53.180;5.812;2023-07-08T11:58:01;25.20;99.90
52849;DHT22;38714;53.180;5.812;2023-07-08T12:00:31;25.30;99.90
52849;DHT22;38714;53.180;5.812;2023-07-08T12:03:20;25.40;99.90
52849;DHT22;38714;53.180;5.812;2023-07-08T12:05:46;25.50;99.90
52849;DHT22;38714;53.180;5.812;2023-07-08T12:08:15;25.50;99.90
52849;DHT22;38714;53.180;5.812;2023-07-08T12:10:48;25.50;99.90
52849;DHT22;38714;53.180;5.812;2023-07-08T12:13:17;25.60;99.90
52849;DHT22;38714;53.180;5.812;2023-07-08T12:15:44;25.70;99.90
52849;DHT22;38714;53.180;5.812;2023-07-08T12:18:19;25.70;99.90
52849;DHT22;38714;53.180;5.812;2023-07-08T12:20:57;25.80;99.90
52849;DHT22;38714;53.180;5.812;2023-07-08T12:23:25;25.80;99.90
52849;DHT22;38714;53.180;5.812;2023-07-08T12:25:52;25.90;99.90
52849;DHT22;38714;53.180;5.812;2023-07-08T12:28:19;25.90;99.90
52849;DHT22;38714;53.180;5.812;2023-07-08T12:30:47;26.00;99.90
52849;DHT22;38714;53.180;5.812;2023-07-08T12:33:25;26.00;99.90
52849;DHT22;38714;53.180;5.812;2023-07-08T12:35:53;26.10;99.90
52849;DHT22;38714;53.180;5.812;2023-07-08T12:38:37;26.20;99.90
52849;DHT22;38714;53.180;5.812;2023-07-08T12:41:09;26.20;99.90
52849;DHT22;38714;53.180;5.812;2023-07-08T12:43:35;26.20;99.90
52849;DHT22;38714;53.180;5.812;2023-07-08T12:46:01;26.30;99.90
52849;DHT22;38714;53.180;5.812;2023-07-08T12:48:35;26.40;99.90
52849;DHT22;38714;53.180;5.812;2023-07-08T12:51:02;26.40;99.90
52849;DHT22;38714;53.180;5.812;2023-07-08T12:53:28;26.40;99.90
52849;DHT22;38714;53.180;5.812;2023-07-08T12:55:57;26.40;99.90
52849;DHT22;38714;53.180;5.812;2023-07-08T12:58:25;26.40;99.90
52849;DHT22;38714;53.180;5.812;2023-07-08T13:00:53;26.50;99.90
52849;DHT22;38714;53.180;5.812;2023-07-08T13:03:22;26.60;99.90
52849;DHT22;38714;53.180;5.812;2023-07-08T13:05:50;26.70;99.90
52849;DHT22;38714;53.180;5.812;2023-07-08T13:08:18;26.70;99.90
52849;DHT22;38714;53.180;5.812;2023-07-08T13:10:45;26.70;99.90
52849;DHT22;38714;53.180;5.812;2023-07-08T13:13:21;26.90;99.90
52849;DHT22;38714;53.180;5.812;2023-07-08T13:15:47;26.90;99.90
52849;DHT22;38714;53.180;5.812;2023-07-08T13:18:28;26.80;99.90
52849;DHT22;38714;53.180;5.812;2023-07-08T13:20:54;26.80;99.90
52849;DHT22;38714;53.180;5.812;2023-07-08T13:23:22;26.90;99.90
52849;DHT22;38714;53.180;5.812;2023-07-08T13:25:50;26.90;99.90
52849;DHT22;38714;53.180;5.812;2023-07-08T13:28:48;26.90;99.90
52849;DHT22;38714;53.180;5.812;2023-07-08T13:31:20;27.00;96.60
52849;DHT22;38714;53.180;5.812;2023-07-08T13:33:48;27.00;99.90
52849;DHT22;38714;53.180;5.812;2023-07-08T13:36:16;27.00;99.90
52849;DHT22;38714;53.180;5.812;2023-07-08T13:38:44;27.00;99.90
52849;DHT22;38714;53.180;5.812;2023-07-08T13:41:10;27.10;99.90
52849;DHT22;38714;53.180;5.812;2023-07-08T13:43:39;27.20;99.90
52849;DHT22;38714;53.180;5.812;2023-07-08T13:46:24;27.20;99.90
52849;DHT22;38714;53.180;5.812;2023-07-08T13:48:52;27.20;99.90
52849;DHT22;38714;53.180;5.812;2023-07-08T13:51:22;27.20;99.90
52849;DHT22;38714;53.180;5.812;2023-07-08T13:53:50;27.30;99.90
52849;DHT22;38714;53.180;5.812;2023-07-08T13:56:29;27.40;99.90
52849;DHT22;38714;53.180;5.812;2023-07-08T14:01:28;27.40;98.80
52849;DHT22;38714;53.180;5.812;2023-07-08T14:03:55;27.40;90.40
52849;DHT22;38714;53.180;5.812;2023-07-08T14:06:24;27.50;99.90
52849;DHT22;38714;53.180;5.812;2023-07-08T14:08:56;27.40;99.90
52849;DHT22;38714;53.180;5.812;2023-07-08T14:11:22;27.50;99.70
52849;DHT22;38714;53.180;5.812;2023-07-08T14:13:48;27.50;99.90
52849;DHT22;38714;53.180;5.812;2023-07-08T14:16:23;27.50;99.90
52849;DHT22;38714;53.180;5.812;2023-07-08T14:18:49;27.60;99.40
52849;DHT22;38714;53.180;5.812;2023-07-08T14:21:15;27.60;99.90
52849;DHT22;38714;53.180;5.812;2023-07-08T14:23:41;27.70;99.90
52849;DHT22;38714;53.180;5.812;2023-07-08T14:26:11;27.70;99.90
52849;DHT22;38714;53.180;5.812;2023-07-08T14:28:37;27.70;99.80
52849;DHT22;38714;53.180;5.812;2023-07-08T14:31:02;27.70;99.90
52849;DHT22;38714;53.180;5.812;2023-07-08T14:33:29;27.80;99.90
52849;DHT22;38714;53.180;5.812;2023-07-08T14:35:54;27.80;99.90
52849;DHT22;38714;53.180;5.812;2023-07-08T14:38:20;27.90;99.90
52849;DHT22;38714;53.180;5.812;2023-07-08T14:40:45;27.90;99.90
52849;DHT22;38714;53.180;5.812;2023-07-08T14:43:18;27.90;99.90
52849;DHT22;38714;53.180;5.812;2023-07-08T14:45:51;28.00;99.90
52849;DHT22;38714;53.180;5.812;2023-07-08T14:48:20;28.10;97.20
52849;DHT22;38714;53.180;5.812;2023-07-08T14:50:46;28.00;98.40
52849;DHT22;38714;53.180;5.812;2023-07-08T14:53:16;28.00;99.90
52849;DHT22;38714;53.180;5.812;2023-07-08T14:55:44;28.10;98.40
52849;DHT22;38714;53.180;5.812;2023-07-08T14:58:25;28.10;99.50
52849;DHT22;38714;53.180;5.812;2023-07-08T15:00:55;28.20;94.50
52849;DHT22;38714;53.180;5.812;2023-07-08T15:03:22;28.20;98.30
52849;DHT22;38714;53.180;5.812;2023-07-08T15:05:49;28.20;99.70
52849;DHT22;38714;53.180;5.812;2023-07-08T15:08:14;28.30;99.20
52849;DHT22;38714;53.180;5.812;2023-07-08T15:10:47;28.30;99.50
52849;DHT22;38714;53.180;5.812;2023-07-08T15:13:13;28.30;94.90
52849;DHT22;38714;53.180;5.812;2023-07-08T15:15:39;28.30;98.80
52849;DHT22;38714;53.180;5.812;2023-07-08T15:18:15;28.30;98.80
52849;DHT22;38714;53.180;5.812;2023-07-08T15:20:42;28.30;92.90
52849;DHT22;38714;53.180;5.812;2023-07-08T15:23:09;28.40;98.20
52849;DHT22;38714;53.180;5.812;2023-07-08T15:25:36;28.40;97.50
52849;DHT22;38714;53.180;5.812;2023-07-08T15:28:04;28.40;97.40
52849;DHT22;38714;53.180;5.812;2023-07-08T15:30:30;28.50;97.80
52849;DHT22;38714;53.180;5.812;2023-07-08T15:32:57;28.50;97.60
52849;DHT22;38714;53.180;5.812;2023-07-08T15:35:29;28.50;97.40
52849;DHT22;38714;53.180;5.812;2023-07-08T15:37:59;28.50;91.40
52849;DHT22;38714;53.180;5.812;2023-07-08T15:40:31;28.50;97.00
52849;DHT22;38714;53.180;5.812;2023-07-08T15:42:59;28.60;96.60
52849;DHT22;38714;53.180;5.812;2023-07-08T15:45:34;28.60;95.70
52849;DHT22;38714;53.180;5.812;2023-07-08T15:48:00;28.60;95.80
52849;DHT22;38714;53.180;5.812;2023-07-08T15:50:27;28.60;96.50
52849;DHT22;38714;53.180;5.812;2023-07-08T15:52:54;28.60;96.00
52849;DHT22;38714;53.180;5.812;2023-07-08T15:55:25;28.70;96.10
52849;DHT22;38714;53.180;5.812;2023-07-08T15:57:58;28.70;93.10
52849;DHT22;38714;53.180;5.812;2023-07-08T16:00:28;28.80;92.50
52849;DHT22;38714;53.180;5.812;2023-07-08T16:02:58;28.80;94.60
52849;DHT22;38714;53.180;5.812;2023-07-08T16:05:24;28.80;93.50
52849;DHT22;38714;53.180;5.812;2023-07-08T16:07:52;28.90;95.40
52849;DHT22;38714;53.180;5.812;2023-07-08T16:10:19;28.90;94.90
52849;DHT22;38714;53.180;5.812;2023-07-08T16:12:46;28.90;95.30
52849;DHT22;38714;53.180;5.812;2023-07-08T16:15:34;28.90;95.40
52849;DHT22;38714;53.180;5.812;2023-07-08T16:18:00;28.90;90.10
52849;DHT22;38714;53.180;5.812;2023-07-08T16:20:27;29.00;95.90
52849;DHT22;38714;53.180;5.812;2023-07-08T16:22:54;29.00;95.80
52849;DHT22;38714;53.180;5.812;2023-07-08T16:25:50;29.10;95.80
52849;DHT22;38714;53.180;5.812;2023-07-08T16:30:48;29.20;89.50
52849;DHT22;38714;53.180;5.812;2023-07-08T16:33:15;29.20;95.10
52849;DHT22;38714;53.180;5.812;2023-07-08T16:35:41;29.30;94.90
52849;DHT22;38714;53.180;5.812;2023-07-08T16:38:07;29.30;94.80